sensor_id;sensor_type;location;lat;lon;timestamp;temperature;humidity
24250;DHT22;12379;49.820;8.648;2022-10-31T00:00:58;11.80;99.90
24250;DHT22;12379;49.820;8.648;2022-10-31T00:03:23;11.80;99.90
24250;DHT22;12379;49.820;8.648;2022-10-31T00:05:50;11.80;99.90
24250;DHT22;12379;49.820;8.648;2022-10-31T00:08:16;11.80;99.90
24250;DHT22;12379;49.820;8.648;2022-10-31T00:10:43;11.80;99.90
24250;DHT22;12379;49.820;8.648;2022-10-31T00:13:10;11.70;99.90
24250;DHT22;12379;49.820;8.648;2022-10-31T00:15:37;11.60;99.90
24250;DHT22;12379;49.820;8.648;2022-10-31T00:18:03;11.60;99.90
24250;DHT22;12379;49.820;8.648;2022-10-31T00:20:30;11.50;99.90
24250;DHT22;12379;49.820;8.648;2022-10-31T00:22:59;11.50;99.90
24250;DHT22;12379;49.820;8.648;2022-10-31T00:25:26;11.50;99.90
24250;DHT22;12379;49.820;8.648;2022-10-31T00:27:52;11.50;99.90
24250;DHT22;12379;49.820;8.648;2022-10-31T00:30:18;11.50;99.90
24250;DHT22;12379;49.820;8.648;2022-10-31T00:32:43;11.50;99.90
24250;DHT22;12379;49.820;8.648;2022-10-31T00:35:09;11.50;99.90
24250;DHT22;12379;49.820;8.648;2022-10-31T00:37:35;11.50;99.90
24250;DHT22;12379;49.820;8.648;2022-10-31T00:40:00;11.50;99.90
24250;DHT22;12379;49.820;8.648;2022-10-31T00:42:26;11.40;99.90
24250;DHT22;12379;49.820;8.648;2022-10-31T00:44:51;11.40;99.90
24250;DHT22;12379;49.820;8.648;2022-10-31T00:47:17;11.30;99.90
24250;DHT22;12379;49.820;8.648;2022-10-31T00:49:42;11.30;99.90
24250;DHT22;12379;49.820;8.648;2022-10-31T00:52:08;11.20;99.90
24250;DHT22;12379;49.820;8.648;2022-10-31T00:54:33;11.20;99.90
24250;DHT22;12379;49.820;8.648;2022-10-31T00:56:59;11.20;99.90
24250;DHT22;12379;49.820;8.648;2022-10-31T00:59:25;11.30;99.90
24250;DHT22;12379;49.820;8.648;2022-10-31T01:01:50;11.20;99.90
24250;DHT22;12379;49.820;8.648;2022-10-31T01:04:16;11.20;99.90
24250;DHT22;12379;49.820;8.648;2022-10-31T01:06:41;11.10;99.90
24250;DHT22;12379;49.820;8.648;2022-10-31T01:09:07;11.10;99.90
24250;DHT22;12379;49.820;8.648;2022-10-31T01:11:33;11.20;99.90
24250;DHT22;12379;49.820;8.648;2022-10-31T01:13:59;11.20;99.90
24250;DHT22;12379;49.820;8.648;2022-10-31T01:16:26;11.10;99.90
24250;DHT22;12379;49.820;8.648;2022-10-31T01:18:52;11.00;99.90
24250;DHT22;12379;49.820;8.648;2022-10-31T01:21:23;11.10;99.90
24250;DHT22;12379;49.820;8.648;2022-10-31T01:23:50;11.10;99.90
24250;DHT22;12379;49.820;8.648;2022-10-31T01:26:25;11.10;99.90
24250;DHT22;12379;49.820;8.648;2022-10-31T01:28:57;11.10;99.90
24250;DHT22;12379;49.820;8.648;2022-10-31T01:31:26;11.10;99.90
24250;DHT22;12379;49.820;8.648;2022-10-31T01:33:52;11.10;99.90
24250;DHT22;12379;49.820;8.648;2022-10-31T01:36:26;11.10;99.90
24250;DHT22;12379;49.820;8.648;2022-10-31T01:38:55;11.00;99.90
24250;DHT22;12379;49.820;8.648;2022-10-31T01:41:24;11.10;99.90
24250;DHT22;12379;49.820;8.648;2022-10-31T01:43:53;11.10;99.90
24250;DHT22;12379;49.820;8.648;2022-10-31T01:49:00;11.00;99.90
24250;DHT22;12379;49.820;8.648;2022-10-31T01:51:31;11.10;99.90
24250;DHT22;12379;49.820;8.648;2022-10-31T01:54:02;11.10;99.90
24250;DHT22;12379;49.820;8.648;2022-10-31T01:56:28;11.10;99.90
24250;DHT22;12379;49.820;8.648;2022-10-31T01:58:54;11.10;99.90
24250;DHT22;12379;49.820;8.648;2022-10-31T02:01:22;11.10;99.90
24250;DHT22;12379;49.820;8.648;2022-10-31T02:03:47;11.20;99.90
24250;DHT22;12379;49.820;8.648;2022-10-31T02:06:27;11.20;99.90
24250;DHT22;12379;49.820;8.648;2022-10-31T02:08:55;11.20;99.90
24250;DHT22;12379;49.820;8.648;2022-10-31T02:11:22;11.20;99.90
24250;DHT22;12379;49.820;8.648;2022-10-31T02:13:48;11.30;99.90
24250;DHT22;12379;49.820;8.648;2022-10-31T02:16:14;11.30;99.90
24250;DHT22;12379;49.820;8.648;2022-10-31T02:18:39;11.40;99.90
24250;DHT22;12379;49.820;8.648;2022-10-31T02:23:54;11.60;99.90
24250;DHT22;12379;49.820;8.648;2022-10-31T02:29:37;11.80;99.90
24250;DHT22;12379;49.820;8.648;2022-10-31T02:32:25;11.80;99.90
24250;DHT22;12379;49.820;8.648;2022-10-31T02:40:44;11.90;99.90
24250;DHT22;12379;49.820;8.648;2022-10-31T02:43:31;11.80;99.90
24250;DHT22;12379;49.820;8.648;2022-10-31T02:48:58;11.90;99.90
24250;DHT22;12379;49.820;8.648;2022-10-31T02:51:25;12.00;99.90
24250;DHT22;12379;49.820;8.648;2022-10-31T02:53:51;11.90;99.90
24250;DHT22;12379;49.820;8.648;2022-10-31T02:56:18;11.90;99.90
24250;DHT22;12379;49.820;8.648;2022-10-31T02:59:02;11.80;99.90
24250;DHT22;12379;49.820;8.648;2022-10-31T03:04:49;11.90;99.90
24250;DHT22;12379;49.820;8.648;2022-10-31T03:07:42;11.90;99.90
24250;DHT22;12379;49.820;8.648;2022-10-31T03:12:53;11.80;99.90
24250;DHT22;12379;49.820;8.648;2022-10-31T03:15:32;11.80;99.90
24250;DHT22;12379;49.820;8.648;2022-10-31T03:18:07;11.80;99.90
24250;DHT22;12379;49.820;8.648;2022-10-31T03:20:41;11.70;99.90
24250;DHT22;12379;49.820;8.648;2022-10-31T03:23:12;11.70;99.90
24250;DHT22;12379;49.820;8.648;2022-10-31T03:25:39;11.70;99.90
24250;DHT22;12379;49.820;8.648;2022-10-31T03:28:07;11.70;99.90
24250;DHT22;12379;49.820;8.648;2022-10-31T03:30:35;11.70;99.90
24250;DHT22;12379;49.820;8.648;2022-10-31T03:33:04;11.60;99.90
24250;DHT22;12379;49.820;8.648;2022-10-31T03:35:33;11.60;99.90
24250;DHT22;12379;49.820;8.648;2022-10-31T03:38:00;11.50;99.90
24250;DHT22;12379;49.820;8.648;2022-10-31T03:40:27;11.50;99.90
24250;DHT22;12379;49.820;8.648;2022-10-31T03:43:04;11.50;99.90
24250;DHT22;12379;49.820;8.648;2022-10-31T03:45:36;11.50;99.90
24250;DHT22;12379;49.820;8.648;2022-10-31T03:48:05;11.50;99.90
24250;DHT22;12379;49.820;8.648;2022-10-31T03:50:40;11.50;99.90
24250;DHT22;12379;49.820;8.648;2022-10-31T03:53:17;11.50;99.90
24250;DHT22;12379;49.820;8.648;2022-10-31T03:56:22;11.60;99.90
24250;DHT22;12379;49.820;8.648;2022-10-31T03:59:00;11.70;99.90
24250;DHT22;12379;49.820;8.648;2022-10-31T04:01:27;11.70;99.90
24250;DHT22;12379;49.820;8.648;2022-10-31T04:03:56;11.90;99.90
24250;DHT22;12379;49.820;8.648;2022-10-31T04:06:22;11.80;99.90
24250;DHT22;12379;49.820;8.648;2022-10-31T04:08:59;11.80;99.90
24250;DHT22;12379;49.820;8.648;2022-10-31T04:11:31;11.80;99.90
24250;DHT22;12379;49.820;8.648;2022-10-31T04:13:59;11.70;99.90
24250;DHT22;12379;49.820;8.648;2022-10-31T04:16:25;11.80;99.90
24250;DHT22;12379;49.820;8.648;2022-10-31T04:18:51;11.80;99.90
24250;DHT22;12379;49.820;8.648;2022-10-31T04:21:17;11.80;99.90
24250;DHT22;12379;49.820;8.648;2022-10-31T04:23:42;11.80;99.90
24250;DHT22;12379;49.820;8.648;2022-10-31T04:26:11;11.70;99.90
24250;DHT22;12379;49.820;8.648;2022-10-31T04:28:37;11.70;99.90
24250;DHT22;12379;49.820;8.648;2022-10-31T04:31:02;11.70;99.90
24250;DHT22;12379;49.820;8.648;2022-10-31T04:33:28;11.60;99.90
24250;DHT22;12379;49.820;8.648;2022-10-31T04:35:53;11.60;99.90
24250;DHT22;12379;49.820;8.648;2022-10-31T04:38:19;11.50;99.90
24250;DHT22;12379;49.820;8.648;2022-10-31T04:40:45;11.50;99.90
24250;DHT22;12379;49.820;8.648;2022-10-31T04:43:11;11.40;99.90
24250;DHT22;12379;49.820;8.648;2022-10-31T04:45:37;11.40;99.90
24250;DHT22;12379;49.820;8.648;2022-10-31T04:48:03;11.40;99.90
24250;DHT22;12379;49.820;8.648;2022-10-31T04:50:28;11.40;99.90
24250;DHT22;12379;49.820;8.648;2022-10-31T04:52:54;11.40;99.90
24250;DHT22;12379;49.820;8.648;2022-10-31T04:55:19;11.50;99.90
24250;DHT22;12379;49.820;8.648;2022-10-31T04:57:47;11.40;99.90
24250;DHT22;12379;49.820;8.648;2022-10-31T05:00:15;11.40;99.90
24250;DHT22;12379;49.820;8.648;2022-10-31T05:02:50;11.40;99.90
24250;DHT22;12379;49.820;8.648;2022-10-31T05:05:17;11.40;99.90
24250;DHT22;12379;49.820;8.648;2022-10-31T05:07:46;11.40;99.90
24250;DHT22;12379;49.820;8.648;2022-10-31T05:10:16;11.40;99.90
24250;DHT22;12379;49.820;8.648;2022-10-31T05:12:46;11.40;99.90
24250;DHT22;12379;49.820;8.648;2022-10-31T05:15:13;11.30;99.90
24250;DHT22;12379;49.820;8.648;2022-10-31T05:17:39;11.30;99.90
24250;DHT22;12379;49.820;8.648;2022-10-31T05:20:05;11.30;99.90
24250;DHT22;12379;49.820;8.648;2022-10-31T05:22:30;11.20;99.90
24250;DHT22;12379;49.820;8.648;2022-10-31T05:24:56;11.20;99.90
24250;DHT22;12379;49.820;8.648;2022-10-31T05:27:21;11.10;99.90
24250;DHT22;12379;49.820;8.648;2022-10-31T05:29:47;11.10;99.90
24250;DHT22;12379;49.820;8.648;2022-10-31T05:32:12;11.10;99.90
24250;DHT22;12379;49.820;8.648;2022-10-31T05:34:38;11.00;99.90
24250;DHT22;12379;49.820;8.648;2022-10-31T05:37:04;11.00;99.90
24250;DHT22;12379;49.820;8.648;2022-10-31T05:39:29;10.90;99.90
24250;DHT22;12379;49.820;8.648;2022-10-31T05:41:55;10.90;99.90
24250;DHT22;12379;49.820;8.648;2022-10-31T05:44:20;10.90;99.90
24250;DHT22;12379;49.820;8.648;2022-10-31T05:46:46;10.90;99.90
24250;DHT22;12379;49.820;8.648;2022-10-31T05:49:12;10.90;99.90
24250;DHT22;12379;49.820;8.648;2022-10-31T05:51:38;10.90;99.90
24250;DHT22;12379;49.820;8.648;2022-10-31T05:54:04;10.90;99.90
24250;DHT22;12379;49.820;8.648;2022-10-31T05:56:29;10.90;99.90
24250;DHT22;12379;49.820;8.648;2022-10-31T05:58:55;10.90;99.90
24250;DHT22;12379;49.820;8.648;2022-10-31T06:01:20;10.90;99.90
24250;DHT22;12379;49.820;8.648;2022-10-31T06:03:46;10.80;99.90
24250;DHT22;12379;49.820;8.648;2022-10-31T06:06:11;10.80;99.90
24250;DHT22;12379;49.820;8.648;2022-10-31T06:08:37;10.80;99.90
24250;DHT22;12379;49.820;8.648;2022-10-31T06:11:03;10.80;99.90
24250;DHT22;12379;49.820;8.648;2022-10-31T06:13:28;10.70;99.90
24250;DHT22;12379;49.820;8.648;2022-10-31T06:15:54;10.70;99.90
24250;DHT22;12379;49.820;8.648;2022-10-31T06:18:19;10.70;99.90
24250;DHT22;12379;49.820;8.648;2022-10-31T06:20:45;10.70;99.90
24250;DHT22;12379;49.820;8.648;2022-10-31T06:23:10;10.70;99.90
24250;DHT22;12379;49.820;8.648;2022-10-31T06:25:36;10.70;99.90
24250;DHT22;12379;49.820;8.648;2022-10-31T06:28:01;10.70;99.90
24250;DHT22;12379;49.820;8.648;2022-10-31T06:30:27;10.70;99.90
24250;DHT22;12379;49.820;8.648;2022-10-31T06:32:53;10.80;99.90
24250;DHT22;12379;49.820;8.648;2022-10-31T06:35:18;10.90;99.90
24250;DHT22;12379;49.820;8.648;2022-10-31T06:37:51;10.80;99.90
24250;DHT22;12379;49.820;8.648;2022-10-31T06:40:17;10.90;99.90
24250;DHT22;12379;49.820;8.648;2022-10-31T06:42:42;10.90;99.90
24250;DHT22;12379;49.820;8.648;2022-10-31T06:45:08;11.00;99.90
24250;DHT22;12379;49.820;8.648;2022-10-31T06:47:33;11.10;99.90
24250;DHT22;12379;49.820;8.648;2022-10-31T06:49:59;11.20;99.90
24250;DHT22;12379;49.820;8.648;2022-10-31T06:52:24;11.80;99.90
24250;DHT22;12379;49.820;8.648;2022-10-31T06:54:50;11.70;99.90
24250;DHT22;12379;49.820;8.648;2022-10-31T06:57:15;11.70;99.90
24250;DHT22;12379;49.820;8.648;2022-10-31T06:59:41;11.70;99.90
24250;DHT22;12379;49.820;8.648;2022-10-31T07:02:09;11.80;99.90
24250;DHT22;12379;49.820;8.648;2022-10-31T07:04:35;11.90;99.90
24250;DHT22;12379;49.820;8.648;2022-10-31T07:07:00;12.00;99.90
24250;DHT22;12379;49.820;8.648;2022-10-31T07:09:26;12.10;99.90
24250;DHT22;12379;49.820;8.648;2022-10-31T07:11:52;12.20;99.90
24250;DHT22;12379;49.820;8.648;2022-10-31T07:14:18;12.30;99.90
24250;DHT22;12379;49.820;8.648;2022-10-31T07:16:43;12.40;99.90
24250;DHT22;12379;49.820;8.648;2022-10-31T07:19:12;12.60;99.90
24250;DHT22;12379;49.820;8.648;2022-10-31T07:21:38;12.70;99.90
24250;DHT22;12379;49.820;8.648;2022-10-31T07:24:04;12.90;99.90
24250;DHT22;12379;49.820;8.648;2022-10-31T07:26:29;13.10;99.90
24250;DHT22;12379;49.820;8.648;2022-10-31T07:28:55;13.20;99.90
24250;DHT22;12379;49.820;8.648;2022-10-31T07:31:20;13.40;99.90
24250;DHT22;12379;49.820;8.648;2022-10-31T07:33:46;13.40;99.90
24250;DHT22;12379;49.820;8.648;2022-10-31T07:36:11;13.50;99.90
24250;DHT22;12379;49.820;8.648;2022-10-31T07:38:37;13.40;99.90
24250;DHT22;12379;49.820;8.648;2022-10-31T07:41:03;13.50;99.90
24250;DHT22;12379;49.820;8.648;2022-10-31T07:43:28;13.40;99.90
24250;DHT22;12379;49.820;8.648;2022-10-31T07:45:54;13.40;99.90
24250;DHT22;12379;49.820;8.648;2022-10-31T07:48:20;13.40;99.90
24250;DHT22;12379;49.820;8.648;2022-10-31T07:50:46;13.70;99.90
24250;DHT22;12379;49.820;8.648;2022-10-31T07:53:13;13.90;99.90
24250;DHT22;12379;49.820;8.648;2022-10-31T07:55:39;14.10;99.90
24250;DHT22;12379;49.820;8.648;2022-10-31T07:58:06;14.30;99.90
24250;DHT22;12379;49.820;8.648;2022-10-31T08:00:34;14.30;99.90
24250;DHT22;12379;49.820;8.648;2022-10-31T08:03:02;14.30;99.90
24250;DHT22;12379;49.820;8.648;2022-10-31T08:05:29;14.40;99.90
24250;DHT22;12379;49.820;8.648;2022-10-31T08:07:54;14.40;99.90
24250;DHT22;12379;49.820;8.648;2022-10-31T08:10:21;14.40;99.90
24250;DHT22;12379;49.820;8.648;2022-10-31T08:12:52;14.60;99.90
24250;DHT22;12379;49.820;8.648;2022-10-31T08:15:19;14.70;99.90
24250;DHT22;12379;49.820;8.648;2022-10-31T08:17:45;15.00;99.90
24250;DHT22;12379;49.820;8.648;2022-10-31T08:20:10;15.70;99.90
24250;DHT22;12379;49.820;8.648;2022-10-31T08:22:36;15.80;99.90
24250;DHT22;12379;49.820;8.648;2022-10-31T08:25:01;15.90;99.90
24250;DHT22;12379;49.820;8.648;2022-10-31T08:27:27;16.10;99.90
24250;DHT22;12379;49.820;8.648;2022-10-31T08:29:53;17.00;99.90
24250;DHT22;12379;49.820;8.648;2022-10-31T08:32:18;17.30;99.90
24250;DHT22;12379;49.820;8.648;2022-10-31T08:34:44;17.80;99.90
24250;DHT22;12379;49.820;8.648;2022-10-31T08:37:09;17.70;99.90
24250;DHT22;12379;49.820;8.648;2022-10-31T08:39:35;17.40;99.90
24250;DHT22;12379;49.820;8.648;2022-10-31T08:42:00;17.40;99.90
24250;DHT22;12379;49.820;8.648;2022-10-31T08:44:26;17.70;99.90
24250;DHT22;12379;49.820;8.648;2022-10-31T08:46:51;17.60;99.90
24250;DHT22;12379;49.820;8.648;2022-10-31T08:49:17;17.70;99.90
24250;DHT22;12379;49.820;8.648;2022-10-31T08:51:42;17.60;99.90
24250;DHT22;12379;49.820;8.648;2022-10-31T08:54:08;17.30;99.90
24250;DHT22;12379;49.820;8.648;2022-10-31T08:56:34;17.20;99.90
24250;DHT22;12379;49.820;8.648;2022-10-31T08:58:59;17.20;99.90
24250;DHT22;12379;49.820;8.648;2022-10-31T09:01:25;17.20;99.90
24250;DHT22;12379;49.820;8.648;2022-10-31T09:03:50;17.50;99.90
24250;DHT22;12379;49.820;8.648;2022-10-31T09:06:16;17.60;99.90
24250;DHT22;12379;49.820;8.648;2022-10-31T09:08:41;17.60;99.90
24250;DHT22;12379;49.820;8.648;2022-10-31T09:11:07;17.80;99.90
24250;DHT22;12379;49.820;8.648;2022-10-31T09:13:33;17.70;99.90
24250;DHT22;12379;49.820;8.648;2022-10-31T09:15:58;17.30;99.90
24250;DHT22;12379;49.820;8.648;2022-10-31T09:18:25;17.20;99.90
24250;DHT22;12379;49.820;8.648;2022-10-31T09:20:53;17.10;99.90
24250;DHT22;12379;49.820;8.648;2022-10-31T09:23:20;17.10;99.90
24250;DHT22;12379;49.820;8.648;2022-10-31T09:25:47;17.00;99.90
24250;DHT22;12379;49.820;8.648;2022-10-31T09:28:15;17.20;99.90
24250;DHT22;12379;49.820;8.648;2022-10-31T09:30:41;17.10;99.90
24250;DHT22;12379;49.820;8.648;2022-10-31T09:33:10;16.90;99.90
24250;DHT22;12379;49.820;8.648;2022-10-31T09:35:37;17.00;99.90
24250;DHT22;12379;49.820;8.648;2022-10-31T09:38:05;17.10;99.90
24250;DHT22;12379;49.820;8.648;2022-10-31T09:40:39;17.20;99.90
24250;DHT22;12379;49.820;8.648;2022-10-31T09:43:32;17.10;99.90
24250;DHT22;12379;49.820;8.648;2022-10-31T09:49:03;16.70;99.90
24250;DHT22;12379;49.820;8.648;2022-10-31T09:51:40;16.70;99.90
24250;DHT22;12379;49.820;8.648;2022-10-31T09:56:58;16.80;99.90
24250;DHT22;12379;49.820;8.648;2022-10-31T09:59:35;16.60;99.90
24250;DHT22;12379;49.820;8.648;2022-10-31T10:02:04;16.50;99.90
24250;DHT22;12379;49.820;8.648;2022-10-31T10:04:54;16.60;99.90
24250;DHT22;12379;49.820;8.648;2022-10-31T10:07:49;16.60;99.90
24250;DHT22;12379;49.820;8.648;2022-10-31T10:10:31;16.70;99.90
24250;DHT22;12379;49.820;8.648;2022-10-31T10:18:09;16.50;99.90
24250;DHT22;12379;49.820;8.648;2022-10-31T10:28:39;16.30;99.90
24250;DHT22;12379;49.820;8.648;2022-10-31T10:31:15;16.30;99.90
24250;DHT22;12379;49.820;8.648;2022-10-31T10:33:59;16.20;99.90
24250;DHT22;12379;49.820;8.648;2022-10-31T10:36:37;16.20;99.90
24250;DHT22;12379;49.820;8.648;2022-10-31T10:39:25;16.20;99.90
24250;DHT22;12379;49.820;8.648;2022-10-31T10:41:52;16.40;99.90
24250;DHT22;12379;49.820;8.648;2022-10-31T10:44:44;16.60;99.90
24250;DHT22;12379;49.820;8.648;2022-10-31T10:47:41;16.60;99.90
24250;DHT22;12379;49.820;8.648;2022-10-31T10:50:21;16.70;99.90
24250;DHT22;12379;49.820;8.648;2022-10-31T10:53:12;16.70;99.90
24250;DHT22;12379;49.820;8.648;2022-10-31T10:56:16;16.80;99.90
24250;DHT22;12379;49.820;8.648;2022-10-31T10:58:43;16.80;99.90
24250;DHT22;12379;49.820;8.648;2022-10-31T11:01:12;16.80;99.90
24250;DHT22;12379;49.820;8.648;2022-10-31T11:03:39;16.90;99.90
24250;DHT22;12379;49.820;8.648;2022-10-31T11:06:04;17.00;99.90
24250;DHT22;12379;49.820;8.648;2022-10-31T11:08:40;17.30;99.90
24250;DHT22;12379;49.820;8.648;2022-10-31T11:11:13;17.30;99.90
24250;DHT22;12379;49.820;8.648;2022-10-31T11:13:46;17.20;99.90
24250;DHT22;12379;49.820;8.648;2022-10-31T11:16:26;17.20;99.90
24250;DHT22;12379;49.820;8.648;2022-10-31T11:18:53;17.40;99.90
24250;DHT22;12379;49.820;8.648;2022-10-31T11:21:28;17.50;99.90
24250;DHT22;12379;49.820;8.648;2022-10-31T11:26:28;17.60;99.90
24250;DHT22;12379;49.820;8.648;2022-10-31T11:28:58;17.80;99.90
24250;DHT22;12379;49.820;8.648;2022-10-31T11:31:29;17.90;99.90
24250;DHT22;12379;49.820;8.648;2022-10-31T11:34:12;18.00;99.90
24250;DHT22;12379;49.820;8.648;2022-10-31T11:36:43;17.90;99.90
24250;DHT22;12379;49.820;8.648;2022-10-31T11:39:22;17.70;99.90
24250;DHT22;12379;49.820;8.648;2022-10-31T11:41:50;17.60;99.90
24250;DHT22;12379;49.820;8.648;2022-10-31T11:44:29;17.60;99.90
24250;DHT22;12379;49.820;8.648;2022-10-31T11:47:01;17.70;99.90
24250;DHT22;12379;49.820;8.648;2022-10-31T11:51:58;17.80;99.90
24250;DHT22;12379;49.820;8.648;2022-10-31T11:54:41;18.00;99.90
24250;DHT22;12379;49.820;8.648;2022-10-31T11:57:25;18.00;99.90
24250;DHT22;12379;49.820;8.648;2022-10-31T11:59:59;18.10;99.90
24250;DHT22;12379;49.820;8.648;2022-10-31T12:02:26;18.20;99.90
24250;DHT22;12379;49.820;8.648;2022-10-31T12:05:05;18.30;99.90
24250;DHT22;12379;49.820;8.648;2022-10-31T12:07:33;18.30;99.90
24250;DHT22;12379;49.820;8.648;2022-10-31T12:09:58;18.40;99.90
24250;DHT22;12379;49.820;8.648;2022-10-31T12:17:58;18.60;99.90
24250;DHT22;12379;49.820;8.648;2022-10-31T12:37:14;18.60;99.90
24250;DHT22;12379;49.820;8.648;2022-10-31T12:39:57;18.70;99.90
24250;DHT22;12379;49.820;8.648;2022-10-31T12:45:53;18.40;99.90
24250;DHT22;12379;49.820;8.648;2022-10-31T12:48:48;18.30;99.90
24250;DHT22;12379;49.820;8.648;2022-10-31T12:54:12;18.50;99.90
24250;DHT22;12379;49.820;8.648;2022-10-31T12:59:57;18.80;99.90
24250;DHT22;12379;49.820;8.648;2022-10-31T13:02:28;18.80;99.90
24250;DHT22;12379;49.820;8.648;2022-10-31T13:05:11;18.90;99.90
24250;DHT22;12379;49.820;8.648;2022-10-31T13:07:49;18.90;99.90
24250;DHT22;12379;49.820;8.648;2022-10-31T13:10:34;18.90;99.90
24250;DHT22;12379;49.820;8.648;2022-10-31T13:13:17;18.90;99.90
24250;DHT22;12379;49.820;8.648;2022-10-31T13:16:03;18.80;99.90
24250;DHT22;12379;49.820;8.648;2022-10-31T13:19:04;18.60;99.90
24250;DHT22;12379;49.820;8.648;2022-10-31T13:21:37;18.60;99.90
24250;DHT22;12379;49.820;8.648;2022-10-31T13:24:11;18.60;99.90
24250;DHT22;12379;49.820;8.648;2022-10-31T13:26:48;18.60;99.90
24250;DHT22;12379;49.820;8.648;2022-10-31T13:29:33;18.60;99.90
24250;DHT22;12379;49.820;8.648;2022-10-31T13:32:04;18.60;99.90
24250;DHT22;12379;49.820;8.648;2022-10-31T13:34:40;18.60;99.90
24250;DHT22;12379;49.820;8.648;2022-10-31T13:42:44;18.50;99.90
24250;DHT22;12379;49.820;8.648;2022-10-31T13:45:20;18.50;99.90
24250;DHT22;12379;49.820;8.648;2022-10-31T13:47:59;18.40;99.90
24250;DHT22;12379;49.820;8.648;2022-10-31T13:50:31;18.30;99.90
24250;DHT22;12379;49.820;8.648;2022-10-31T13:53:11;18.30;99.90
24250;DHT22;12379;49.820;8.648;2022-10-31T13:55:43;18.30;99.90
24250;DHT22;12379;49.820;8.648;2022-10-31T13:58:26;18.40;99.90
24250;DHT22;12379;49.820;8.648;2022-10-31T14:03:36;18.40;99.90
24250;DHT22;12379;49.820;8.648;2022-10-31T14:06:02;18.50;99.90
24250;DHT22;12379;49.820;8.648;2022-10-31T14:08:29;18.50;99.90
24250;DHT22;12379;49.820;8.648;2022-10-31T14:10:57;18.40;99.90
24250;DHT22;12379;49.820;8.648;2022-10-31T14:13:35;18.40;99.90
24250;DHT22;12379;49.820;8.648;2022-10-31T14:16:17;18.30;99.90
24250;DHT22;12379;49.820;8.648;2022-10-31T14:18:47;18.50;99.90
24250;DHT22;12379;49.820;8.648;2022-10-31T14:21:27;18.70;99.90
24250;DHT22;12379;49.820;8.648;2022-10-31T14:23:55;18.90;99.90
24250;DHT22;12379;49.820;8.648;2022-10-31T14:28:59;18.90;99.90
24250;DHT22;12379;49.820;8.648;2022-10-31T14:31:39;19.10;99.90
24250;DHT22;12379;49.820;8.648;2022-10-31T14:34:22;19.00;99.90
24250;DHT22;12379;49.820;8.648;2022-10-31T14:42:44;19.00;99.90
24250;DHT22;12379;49.820;8.648;2022-10-31T14:48:08;18.90;99.90
24250;DHT22;12379;49.820;8.648;2022-10-31T14:50:54;18.80;99.90
24250;DHT22;12379;49.820;8.648;2022-10-31T14:53:46;18.70;99.90
24250;DHT22;12379;49.820;8.648;2022-10-31T14:56:28;18.60;99.90
24250;DHT22;12379;49.820;8.648;2022-10-31T14:58:57;18.50;99.90
24250;DHT22;12379;49.820;8.648;2022-10-31T15:01:29;18.40;99.90
24250;DHT22;12379;49.820;8.648;2022-10-31T15:04:31;18.30;99.90
24250;DHT22;12379;49.820;8.648;2022-10-31T15:07:14;18.10;99.90
24250;DHT22;12379;49.820;8.648;2022-10-31T15:09:40;17.90;99.90
24250;DHT22;12379;49.820;8.648;2022-10-31T15:12:27;17.80;99.90
24250;DHT22;12379;49.820;8.648;2022-10-31T15:14:53;17.70;99.90
24250;DHT22;12379;49.820;8.648;2022-10-31T15:17:19;17.50;99.90
24250;DHT22;12379;49.820;8.648;2022-10-31T15:19:45;17.40;99.90
24250;DHT22;12379;49.820;8.648;2022-10-31T15:22:15;17.40;99.90
24250;DHT22;12379;49.820;8.648;2022-10-31T15:24:44;17.30;99.90
24250;DHT22;12379;49.820;8.648;2022-10-31T15:27:15;17.30;99.90
24250;DHT22;12379;49.820;8.648;2022-10-31T15:29:53;17.20;99.90
24250;DHT22;12379;49.820;8.648;2022-10-31T15:34:46;17.00;99.90
24250;DHT22;12379;49.820;8.648;2022-10-31T15:37:13;17.00;99.90
24250;DHT22;12379;49.820;8.648;2022-10-31T15:39:42;16.90;99.90
24250;DHT22;12379;49.820;8.648;2022-10-31T15:42:38;16.80;99.90
24250;DHT22;12379;49.820;8.648;2022-10-31T15:45:05;16.80;99.90
24250;DHT22;12379;49.820;8.648;2022-10-31T15:47:47;16.70;99.90
24250;DHT22;12379;49.820;8.648;2022-10-31T15:50:41;16.70;99.90
24250;DHT22;12379;49.820;8.648;2022-10-31T15:53:19;16.70;99.90
24250;DHT22;12379;49.820;8.648;2022-10-31T15:55:50;16.60;99.90
24250;DHT22;12379;49.820;8.648;2022-10-31T15:58:17;16.60;99.90
24250;DHT22;12379;49.820;8.648;2022-10-31T16:00:43;16.60;99.90
24250;DHT22;12379;49.820;8.648;2022-10-31T16:10:53;16.40;99.90
24250;DHT22;12379;49.820;8.648;2022-10-31T16:13:25;16.20;99.90
24250;DHT22;12379;49.820;8.648;2022-10-31T16:16:01;16.20;99.90
24250;DHT22;12379;49.820;8.648;2022-10-31T16:18:27;16.20;99.90
24250;DHT22;12379;49.820;8.648;2022-10-31T16:20:55;16.20;99.90
24250;DHT22;12379;49.820;8.648;2022-10-31T16:23:24;16.20;99.90
24250;DHT22;12379;49.820;8.648;2022-10-31T16:25:50;16.20;99.90
24250;DHT22;12379;49.820;8.648;2022-10-31T16:28:19;16.10;99.90
24250;DHT22;12379;49.820;8.648;2022-10-31T16:30:46;16.10;99.90
24250;DHT22;12379;49.820;8.648;2022-10-31T16:33:35;16.20;99.90
24250;DHT22;12379;49.820;8.648;2022-10-31T16:38:59;16.40;99.90
24250;DHT22;12379;49.820;8.648;2022-10-31T16:41:25;16.30;99.90
24250;DHT22;12379;49.820;8.648;2022-10-31T16:43:51;16.30;99.90
24250;DHT22;12379;49.820;8.648;2022-10-31T16:46:26;16.30;99.90
24250;DHT22;12379;49.820;8.648;2022-10-31T16:48:53;16.20;99.90
24250;DHT22;12379;49.820;8.648;2022-10-31T16:51:19;16.20;99.90
24250;DHT22;12379;49.820;8.648;2022-10-31T16:53:44;16.10;99.90
24250;DHT22;12379;49.820;8.648;2022-10-31T16:56:16;16.20;99.90
24250;DHT22;12379;49.820;8.648;2022-10-31T16:58:43;16.20;99.90
24250;DHT22;12379;49.820;8.648;2022-10-31T17:01:09;16.20;99.90
24250;DHT22;12379;49.820;8.648;2022-10-31T17:03:35;16.20;99.90
24250;DHT22;12379;49.820;8.648;2022-10-31T17:06:01;16.30;99.90
24250;DHT22;12379;49.820;8.648;2022-10-31T17:08:27;16.20;99.90
24250;DHT22;12379;49.820;8.648;2022-10-31T17:10:54;16.20;99.90
24250;DHT22;12379;49.820;8.648;2022-10-31T17:13:24;16.10;99.90
24250;DHT22;12379;49.820;8.648;2022-10-31T17:15:52;16.10;99.90
24250;DHT22;12379;49.820;8.648;2022-10-31T17:18:19;16.10;99.90
24250;DHT22;12379;49.820;8.648;2022-10-31T17:20:45;16.10;99.90
24250;DHT22;12379;49.820;8.648;2022-10-31T17:23:15;16.10;99.90
24250;DHT22;12379;49.820;8.648;2022-10-31T17:25:41;16.10;99.90
24250;DHT22;12379;49.820;8.648;2022-10-31T17:28:10;16.30;99.90
24250;DHT22;12379;49.820;8.648;2022-10-31T17:30:37;16.30;99.90
24250;DHT22;12379;49.820;8.648;2022-10-31T17:33:03;16.20;99.90
24250;DHT22;12379;49.820;8.648;2022-10-31T17:35:29;16.10;99.90
24250;DHT22;12379;49.820;8.648;2022-10-31T17:37:54;16.10;99.90
24250;DHT22;12379;49.820;8.648;2022-10-31T17:40:21;16.20;99.90